Pagrindinis puslapis
METAR-TAF:

METAR-TAF

Oro uostai :

Šanchajus-Hongqiao, Kinija

platuma: 31-10N, ilguma: 121-26E, Aukštis: 7 m

Dabartinis oras

Ataskaita buvo paskelbta 11 minutes, ne 02:30 UTC
Vėjas 4 kt iš Vakarų/Šiaurės Vakarų, svyruoja nuo Pietvakarių ir Šiaurės
Temperatūra 19°C
Drėgmė 34%
Slėgis 1021 hPa
Matomumas 10 km arba daugiau
nėra debesų žemiau 1500 m ir nėra kamuolinių lietaus debesų

METAR: ZSSS 070230Z 30002MPS 220V360 CAVOK 19/03 Q1021 NOSIG

Laikas: 10:41 (02:41 UTC)

Prognozė

Ataskaita buvo paskelbta 5 valandos ir 40 minutes, ne 21:01 UTC
Prognozė galioja nuo 07 metu 00 UTC su 07 metu 24 UTC
Vėjas 6 kt iš Rytų/Šiaurės Rytų
Matomumas: 5000 m
rūkana

TAF: ZSSS 062101Z 0700/0724 06003MPS 5000 BR NSC TX19/0706Z TN09/0721Z

Orai ataskaitas ir orų prognozės (METAR, TAF).

turimą stotys yra geltonos ir raudonos taškus žemėlapyje.

Perkelti pele per norėdami pamatyti stoties vardą.

Tada spustelėkite, norėdami matyti oro stebėjimo ir prognozės.

Norėdami pakeisti žemėlapį: spustelėkite ant žalios mygtukų su juodo kryžiaus žemyn,; žalią mygtuką su brūkšneliu, jei norite nutolinti; arba žalių rodyklių gretimoms žemėlapius.


METAR-TAF: